White Lake, MI (48383)

11:53 AM EDT on August 27, 2016 (GMT -0400)
Sunset Subdivision | | Change Station

Elev 968 ft 42.64 °N, 83.52 °W | Updated 8 minutes ago

Mostly Cloudy
Mostly Cloudy
81.1 °F
Feels Like 83 °F
N
3.4
Wind Variable Wind from SE
Gusts 8.1 mph

Today
High -- | Low -- °F
--% Chance of Precip.
Yesterday
High -- | Low -- °F
Precip. -- in
Pressure 30.14 in
Visibility 10.0 miles
Clouds Few 8500 ft
Scattered Clouds 19000 ft
Mostly Cloudy 24000 ft
Heat Index 83 °F
Dew Point 67 °F
Humidity 62%
Rainfall 0.00 in
Snow Depth Not available.
6:54 AM 8:16 PM
Waning Crescent, 23% visible
METAR KPTK 271453Z 13008KT 10SM FEW085 SCT190 BKN240 24/18 A3015 RMK AO2 SLP204 T02440183 58002
Pressure 30.14 in
Visibility 10.0 miles
Clouds Few 8500 ft
Scattered Clouds 19000 ft
Mostly Cloudy 24000 ft
Heat Index 83 °F
Dew Point 67 °F
Humidity 62%
Rainfall 0.00 in
Snow Depth Not available.
6:54 AM 8:16 PM
Waning Crescent, 23% visible
METAR KPTK 271453Z 13008KT 10SM FEW085 SCT190 BKN240 24/18 A3015 RMK AO2 SLP204 T02440183 58002

10-Day Weather Forecast

Almanac

Astronomy

Aug. 27, 2016 Rise Set
Actual Time
Civil Twilight
Nautical Twilight
Astronomical Twilight
Moon
Length of Visible Light
Length of Day
Tomorrow will be .
, % of the Moon is Illuminated

Today's Extremes

State Highs State Lows

Community

WunderPhotos

Upload Photos

1,935,358 photos uploaded!

WunderBlog® & News

Nearby

Air Quality

  Air Quality AQ Index Pollutant
Not available.

Snow Depth

Station Depth Elevation

Earthquake Activity

City Distance Mag. Time & Date
Minimum magnitude displayed is 2.5.

Coastal Water Temperatures

Place Temperature

Stations

Nearby Weather Stations

Station Location Temp. Windchill Dew Point Humidity Wind Precip. Elev Updated Type
                   

Watches & Warnings

There are currently no watches in effect.